sensor_id;sensor_type;location;lat;lon;timestamp;P1;durP1;ratioP1;P2;durP2;ratioP2
72095;SDS011;59968;51.084;16.748;2022-09-03T00:02:12;3.50;;;1.80;;
72095;SDS011;59968;51.084;16.748;2022-09-03T00:07:34;3.90;;;1.70;;
72095;SDS011;59968;51.084;16.748;2022-09-03T00:10:11;3.30;;;1.70;;
72095;SDS011;59968;51.084;16.748;2022-09-03T00:12:47;2.70;;;1.40;;
72095;SDS011;59968;51.084;16.748;2022-09-03T00:15:20;3.20;;;1.70;;
72095;SDS011;59968;51.084;16.748;2022-09-03T00:17:53;2.60;;;1.50;;
72095;SDS011;59968;51.084;16.748;2022-09-03T00:20:30;2.60;;;1.70;;
72095;SDS011;59968;51.084;16.748;2022-09-03T00:23:05;3.60;;;1.80;;
72095;SDS011;59968;51.084;16.748;2022-09-03T00:28:39;3.80;;;2.00;;
72095;SDS011;59968;51.084;16.748;2022-09-03T00:31:27;3.00;;;1.60;;
72095;SDS011;59968;51.084;16.748;2022-09-03T00:34:42;2.70;;;1.70;;
72095;SDS011;59968;51.084;16.748;2022-09-03T00:36:55;2.80;;;1.70;;
72095;SDS011;59968;51.084;16.748;2022-09-03T00:39:23;3.70;;;1.60;;
72095;SDS011;59968;51.084;16.748;2022-09-03T00:42:08;3.30;;;1.90;;
72095;SDS011;59968;51.084;16.748;2022-09-03T00:55:23;3.30;;;1.60;;
72095;SDS011;59968;51.084;16.748;2022-09-03T01:00:28;4.10;;;1.70;;
72095;SDS011;59968;51.084;16.748;2022-09-03T01:13:56;3.60;;;1.70;;
72095;SDS011;59968;51.084;16.748;2022-09-03T01:30:24;5.00;;;1.90;;
72095;SDS011;59968;51.084;16.748;2022-09-03T01:33:02;2.70;;;1.70;;
72095;SDS011;59968;51.084;16.748;2022-09-03T01:35:54;3.90;;;1.80;;
72095;SDS011;59968;51.084;16.748;2022-09-03T01:39:06;4.70;;;1.90;;
72095;SDS011;59968;51.084;16.748;2022-09-03T01:44:55;3.10;;;1.70;;
72095;SDS011;59968;51.084;16.748;2022-09-03T01:53:09;4.40;;;2.00;;
72095;SDS011;59968;51.084;16.748;2022-09-03T01:58:41;3.70;;;1.80;;
72095;SDS011;59968;51.084;16.748;2022-09-03T02:01:35;3.20;;;1.80;;
72095;SDS011;59968;51.084;16.748;2022-09-03T02:04:16;7.40;;;2.00;;
72095;SDS011;59968;51.084;16.748;2022-09-03T02:06:46;5.30;;;2.00;;
72095;SDS011;59968;51.084;16.748;2022-09-03T02:09:14;3.90;;;2.00;;
72095;SDS011;59968;51.084;16.748;2022-09-03T02:11:43;4.50;;;2.40;;
72095;SDS011;59968;51.084;16.748;2022-09-03T02:14:16;3.10;;;1.80;;
72095;SDS011;59968;51.084;16.748;2022-09-03T02:16:43;2.90;;;1.90;;
72095;SDS011;59968;51.084;16.748;2022-09-03T02:19:11;4.70;;;1.70;;
72095;SDS011;59968;51.084;16.748;2022-09-03T02:21:51;2.80;;;1.70;;
72095;SDS011;59968;51.084;16.748;2022-09-03T02:24:21;3.10;;;2.00;;
72095;SDS011;59968;51.084;16.748;2022-09-03T02:26:49;4.00;;;2.10;;
72095;SDS011;59968;51.084;16.748;2022-09-03T02:29:16;3.80;;;1.80;;
72095;SDS011;59968;51.084;16.748;2022-09-03T02:31:43;3.10;;;1.80;;
72095;SDS011;59968;51.084;16.748;2022-09-03T02:34:11;3.60;;;1.70;;
72095;SDS011;59968;51.084;16.748;2022-09-03T02:36:43;4.40;;;1.90;;
72095;SDS011;59968;51.084;16.748;2022-09-03T02:39:14;4.70;;;1.80;;
72095;SDS011;59968;51.084;16.748;2022-09-03T02:41:42;3.40;;;2.20;;
72095;SDS011;59968;51.084;16.748;2022-09-03T02:47:13;2.50;;;1.70;;
72095;SDS011;59968;51.084;16.748;2022-09-03T02:49:39;3.60;;;1.80;;
72095;SDS011;59968;51.084;16.748;2022-09-03T02:52:07;4.10;;;2.10;;
72095;SDS011;59968;51.084;16.748;2022-09-03T02:54:38;4.20;;;2.00;;
72095;SDS011;59968;51.084;16.748;2022-09-03T02:57:09;2.60;;;1.60;;
72095;SDS011;59968;51.084;16.748;2022-09-03T02:59:37;4.50;;;2.20;;
72095;SDS011;59968;51.084;16.748;2022-09-03T03:02:05;4.10;;;1.90;;
72095;SDS011;59968;51.084;16.748;2022-09-03T03:04:32;2.90;;;1.70;;
72095;SDS011;59968;51.084;16.748;2022-09-03T03:06:59;3.60;;;2.20;;
72095;SDS011;59968;51.084;16.748;2022-09-03T03:09:26;6.40;;;1.80;;
72095;SDS011;59968;51.084;16.748;2022-09-03T03:11:53;5.30;;;1.80;;
72095;SDS011;59968;51.084;16.748;2022-09-03T03:14:21;5.00;;;2.20;;
72095;SDS011;59968;51.084;16.748;2022-09-03T03:16:49;5.50;;;2.10;;
72095;SDS011;59968;51.084;16.748;2022-09-03T03:19:17;5.10;;;2.00;;
72095;SDS011;59968;51.084;16.748;2022-09-03T03:21:44;4.40;;;1.80;;
72095;SDS011;59968;51.084;16.748;2022-09-03T03:24:11;4.70;;;1.90;;
72095;SDS011;59968;51.084;16.748;2022-09-03T03:26:38;5.20;;;2.00;;
72095;SDS011;59968;51.084;16.748;2022-09-03T03:29:05;5.00;;;2.00;;
72095;SDS011;59968;51.084;16.748;2022-09-03T03:31:32;2.80;;;1.80;;
72095;SDS011;59968;51.084;16.748;2022-09-03T03:34:00;4.20;;;2.10;;
72095;SDS011;59968;51.084;16.748;2022-09-03T03:36:29;3.20;;;2.30;;
72095;SDS011;59968;51.084;16.748;2022-09-03T03:38:58;5.90;;;2.50;;
72095;SDS011;59968;51.084;16.748;2022-09-03T03:41:36;4.80;;;2.10;;
72095;SDS011;59968;51.084;16.748;2022-09-03T03:44:08;4.10;;;2.00;;
72095;SDS011;59968;51.084;16.748;2022-09-03T03:50:16;4.40;;;2.30;;
72095;SDS011;59968;51.084;16.748;2022-09-03T03:53:26;5.50;;;1.80;;
72095;SDS011;59968;51.084;16.748;2022-09-03T03:55:54;4.20;;;2.00;;
72095;SDS011;59968;51.084;16.748;2022-09-03T03:58:24;3.60;;;2.20;;
72095;SDS011;59968;51.084;16.748;2022-09-03T04:00:52;4.30;;;2.10;;
72095;SDS011;59968;51.084;16.748;2022-09-03T04:03:19;5.00;;;2.30;;
72095;SDS011;59968;51.084;16.748;2022-09-03T04:05:56;4.10;;;2.20;;
72095;SDS011;59968;51.084;16.748;2022-09-03T04:08:25;5.70;;;2.60;;
72095;SDS011;59968;51.084;16.748;2022-09-03T04:10:53;4.30;;;2.30;;
72095;SDS011;59968;51.084;16.748;2022-09-03T04:13:27;4.40;;;2.40;;
72095;SDS011;59968;51.084;16.748;2022-09-03T04:15:59;3.90;;;2.20;;
72095;SDS011;59968;51.084;16.748;2022-09-03T04:18:30;5.30;;;2.50;;
72095;SDS011;59968;51.084;16.748;2022-09-03T04:20:59;6.10;;;2.10;;
72095;SDS011;59968;51.084;16.748;2022-09-03T04:23:30;5.40;;;2.30;;
72095;SDS011;59968;51.084;16.748;2022-09-03T04:25:57;3.20;;;1.90;;
72095;SDS011;59968;51.084;16.748;2022-09-03T04:28:25;4.00;;;2.10;;
72095;SDS011;59968;51.084;16.748;2022-09-03T04:30:53;3.80;;;2.20;;
72095;SDS011;59968;51.084;16.748;2022-09-03T04:33:20;5.00;;;2.30;;
72095;SDS011;59968;51.084;16.748;2022-09-03T04:35:50;5.40;;;2.30;;
72095;SDS011;59968;51.084;16.748;2022-09-03T04:38:17;3.90;;;2.40;;
72095;SDS011;59968;51.084;16.748;2022-09-03T04:40:50;4.40;;;2.40;;
72095;SDS011;59968;51.084;16.748;2022-09-03T04:43:18;3.60;;;2.00;;
72095;SDS011;59968;51.084;16.748;2022-09-03T04:45:45;7.70;;;2.60;;
72095;SDS011;59968;51.084;16.748;2022-09-03T04:48:11;7.90;;;2.40;;
72095;SDS011;59968;51.084;16.748;2022-09-03T04:50:38;4.00;;;2.40;;
72095;SDS011;59968;51.084;16.748;2022-09-03T04:53:09;5.20;;;2.30;;
72095;SDS011;59968;51.084;16.748;2022-09-03T04:55:36;4.80;;;2.10;;
72095;SDS011;59968;51.084;16.748;2022-09-03T04:58:04;5.40;;;2.30;;
72095;SDS011;59968;51.084;16.748;2022-09-03T05:00:36;4.90;;;2.80;;
72095;SDS011;59968;51.084;16.748;2022-09-03T05:03:05;5.30;;;2.60;;
72095;SDS011;59968;51.084;16.748;2022-09-03T05:05:34;6.80;;;2.40;;
72095;SDS011;59968;51.084;16.748;2022-09-03T05:08:02;4.80;;;2.60;;
72095;SDS011;59968;51.084;16.748;2022-09-03T05:10:31;5.60;;;2.60;;
72095;SDS011;59968;51.084;16.748;2022-09-03T05:13:03;7.00;;;2.70;;
72095;SDS011;59968;51.084;16.748;2022-09-03T05:15:32;5.00;;;2.20;;
72095;SDS011;59968;51.084;16.748;2022-09-03T05:18:01;6.70;;;2.50;;
72095;SDS011;59968;51.084;16.748;2022-09-03T05:20:30;5.80;;;2.00;;
72095;SDS011;59968;51.084;16.748;2022-09-03T05:23:02;5.30;;;2.10;;
72095;SDS011;59968;51.084;16.748;2022-09-03T05:25:31;3.50;;;2.30;;
72095;SDS011;59968;51.084;16.748;2022-09-03T05:27:59;7.20;;;2.60;;
72095;SDS011;59968;51.084;16.748;2022-09-03T05:30:29;3.30;;;2.10;;
72095;SDS011;59968;51.084;16.748;2022-09-03T05:32:57;4.20;;;2.20;;
72095;SDS011;59968;51.084;16.748;2022-09-03T05:35:25;4.20;;;2.20;;
72095;SDS011;59968;51.084;16.748;2022-09-03T05:37:56;4.40;;;1.90;;
72095;SDS011;59968;51.084;16.748;2022-09-03T05:40:28;5.30;;;2.20;;
72095;SDS011;59968;51.084;16.748;2022-09-03T05:42:58;4.20;;;2.40;;
72095;SDS011;59968;51.084;16.748;2022-09-03T05:45:27;5.70;;;2.50;;
72095;SDS011;59968;51.084;16.748;2022-09-03T05:47:58;4.00;;;2.10;;
72095;SDS011;59968;51.084;16.748;2022-09-03T05:50:26;3.80;;;1.90;;
72095;SDS011;59968;51.084;16.748;2022-09-03T05:52:57;5.50;;;2.30;;
72095;SDS011;59968;51.084;16.748;2022-09-03T05:55:25;5.30;;;2.60;;
72095;SDS011;59968;51.084;16.748;2022-09-03T05:57:54;7.10;;;2.60;;
72095;SDS011;59968;51.084;16.748;2022-09-03T06:00:22;4.70;;;2.20;;
72095;SDS011;59968;51.084;16.748;2022-09-03T06:02:51;5.30;;;2.40;;
72095;SDS011;59968;51.084;16.748;2022-09-03T06:05:20;6.70;;;2.30;;
72095;SDS011;59968;51.084;16.748;2022-09-03T06:07:47;3.40;;;2.10;;
72095;SDS011;59968;51.084;16.748;2022-09-03T06:10:16;5.50;;;2.20;;
72095;SDS011;59968;51.084;16.748;2022-09-03T06:12:49;4.80;;;2.10;;
72095;SDS011;59968;51.084;16.748;2022-09-03T06:15:18;3.30;;;2.00;;
72095;SDS011;59968;51.084;16.748;2022-09-03T06:17:46;4.40;;;2.00;;
72095;SDS011;59968;51.084;16.748;2022-09-03T06:20:15;3.90;;;1.80;;
72095;SDS011;59968;51.084;16.748;2022-09-03T06:22:47;4.20;;;2.00;;
72095;SDS011;59968;51.084;16.748;2022-09-03T06:25:21;3.90;;;2.30;;
72095;SDS011;59968;51.084;16.748;2022-09-03T06:27:51;5.10;;;2.30;;
72095;SDS011;59968;51.084;16.748;2022-09-03T06:30:19;5.00;;;2.20;;
72095;SDS011;59968;51.084;16.748;2022-09-03T06:32:49;4.90;;;2.40;;
72095;SDS011;59968;51.084;16.748;2022-09-03T06:35:18;6.20;;;2.10;;
72095;SDS011;59968;51.084;16.748;2022-09-03T06:37:47;3.50;;;1.90;;
72095;SDS011;59968;51.084;16.748;2022-09-03T06:40:17;5.50;;;2.10;;
72095;SDS011;59968;51.084;16.748;2022-09-03T06:42:55;3.80;;;2.00;;
72095;SDS011;59968;51.084;16.748;2022-09-03T06:45:27;4.80;;;2.20;;
72095;SDS011;59968;51.084;16.748;2022-09-03T06:47:56;3.10;;;2.10;;
72095;SDS011;59968;51.084;16.748;2022-09-03T06:50:23;4.30;;;2.20;;
72095;SDS011;59968;51.084;16.748;2022-09-03T06:52:53;3.90;;;2.00;;
72095;SDS011;59968;51.084;16.748;2022-09-03T06:55:23;3.70;;;1.90;;
72095;SDS011;59968;51.084;16.748;2022-09-03T06:57:54;6.60;;;2.30;;
72095;SDS011;59968;51.084;16.748;2022-09-03T07:00:23;4.70;;;2.00;;
72095;SDS011;59968;51.084;16.748;2022-09-03T07:02:55;4.40;;;1.90;;
72095;SDS011;59968;51.084;16.748;2022-09-03T07:05:26;5.70;;;2.30;;
72095;SDS011;59968;51.084;16.748;2022-09-03T07:07:57;6.10;;;2.10;;
72095;SDS011;59968;51.084;16.748;2022-09-03T07:10:26;4.90;;;2.20;;
72095;SDS011;59968;51.084;16.748;2022-09-03T07:12:56;4.40;;;2.10;;
72095;SDS011;59968;51.084;16.748;2022-09-03T07:15:24;5.40;;;2.10;;
72095;SDS011;59968;51.084;16.748;2022-09-03T07:17:52;5.70;;;1.90;;
72095;SDS011;59968;51.084;16.748;2022-09-03T07:20:20;4.70;;;2.30;;
72095;SDS011;59968;51.084;16.748;2022-09-03T07:22:49;5.80;;;2.20;;
72095;SDS011;59968;51.084;16.748;2022-09-03T07:25:17;4.30;;;2.20;;
72095;SDS011;59968;51.084;16.748;2022-09-03T07:27:45;4.70;;;2.10;;
72095;SDS011;59968;51.084;16.748;2022-09-03T07:30:13;5.00;;;2.20;;
72095;SDS011;59968;51.084;16.748;2022-09-03T07:32:41;5.80;;;2.50;;
72095;SDS011;59968;51.084;16.748;2022-09-03T07:35:10;4.30;;;2.20;;
72095;SDS011;59968;51.084;16.748;2022-09-03T07:37:41;4.80;;;2.10;;
72095;SDS011;59968;51.084;16.748;2022-09-03T07:40:10;4.00;;;2.10;;
72095;SDS011;59968;51.084;16.748;2022-09-03T07:42:43;4.10;;;2.20;;
72095;SDS011;59968;51.084;16.748;2022-09-03T07:45:11;6.00;;;2.20;;
72095;SDS011;59968;51.084;16.748;2022-09-03T07:47:47;3.70;;;2.10;;
72095;SDS011;59968;51.084;16.748;2022-09-03T07:50:17;4.90;;;2.30;;
72095;SDS011;59968;51.084;16.748;2022-09-03T07:52:47;4.10;;;2.50;;
72095;SDS011;59968;51.084;16.748;2022-09-03T07:55:37;7.70;;;2.90;;
72095;SDS011;59968;51.084;16.748;2022-09-03T07:58:05;4.50;;;2.50;;
72095;SDS011;59968;51.084;16.748;2022-09-03T08:00:34;6.30;;;2.40;;
72095;SDS011;59968;51.084;16.748;2022-09-03T08:03:04;6.20;;;2.20;;
72095;SDS011;59968;51.084;16.748;2022-09-03T08:05:36;5.50;;;2.50;;
72095;SDS011;59968;51.084;16.748;2022-09-03T08:08:05;5.70;;;2.80;;
72095;SDS011;59968;51.084;16.748;2022-09-03T08:10:36;5.50;;;2.60;;
72095;SDS011;59968;51.084;16.748;2022-09-03T08:13:07;5.50;;;2.70;;
72095;SDS011;59968;51.084;16.748;2022-09-03T08:15:39;5.70;;;2.30;;
72095;SDS011;59968;51.084;16.748;2022-09-03T08:18:12;5.20;;;3.00;;
72095;SDS011;59968;51.084;16.748;2022-09-03T08:20:43;6.30;;;2.60;;
72095;SDS011;59968;51.084;16.748;2022-09-03T08:23:13;5.30;;;2.60;;
72095;SDS011;59968;51.084;16.748;2022-09-03T08:25:43;5.10;;;2.80;;
72095;SDS011;59968;51.084;16.748;2022-09-03T08:28:16;7.40;;;2.60;;
72095;SDS011;59968;51.084;16.748;2022-09-03T08:30:46;5.60;;;2.70;;
72095;SDS011;59968;51.084;16.748;2022-09-03T08:33:16;4.40;;;2.80;;
72095;SDS011;59968;51.084;16.748;2022-09-03T08:36:07;6.50;;;3.20;;
72095;SDS011;59968;51.084;16.748;2022-09-03T08:38:44;5.70;;;2.90;;
72095;SDS011;59968;51.084;16.748;2022-09-03T08:41:29;6.60;;;2.60;;
72095;SDS011;59968;51.084;16.748;2022-09-03T08:44:29;6.10;;;3.10;;
72095;SDS011;59968;51.084;16.748;2022-09-03T08:52:56;5.70;;;3.10;;
72095;SDS011;59968;51.084;16.748;2022-09-03T08:58:05;5.60;;;2.50;;
72095;SDS011;59968;51.084;16.748;2022-09-03T09:09:43;6.50;;;3.00;;
72095;SDS011;59968;51.084;16.748;2022-09-03T09:14:55;8.30;;;3.00;;
72095;SDS011;59968;51.084;16.748;2022-09-03T09:25:52;6.30;;;2.90;;
72095;SDS011;59968;51.084;16.748;2022-09-03T09:28:23;6.90;;;3.50;;
72095;SDS011;59968;51.084;16.748;2022-09-03T09:30:55;5.40;;;3.30;;
72095;SDS011;59968;51.084;16.748;2022-09-03T09:33:24;5.50;;;2.90;;
72095;SDS011;59968;51.084;16.748;2022-09-03T09:35:52;6.20;;;2.90;;
72095;SDS011;59968;51.084;16.748;2022-09-03T09:38:26;4.30;;;3.00;;
72095;SDS011;59968;51.084;16.748;2022-09-03T09:41:06;6.40;;;3.40;;
72095;SDS011;59968;51.084;16.748;2022-09-03T09:43:47;6.90;;;3.00;;
72095;SDS011;59968;51.084;16.748;2022-09-03T09:46:26;4.90;;;2.80;;
72095;SDS011;59968;51.084;16.748;2022-09-03T09:49:00;5.40;;;3.10;;
72095;SDS011;59968;51.084;16.748;2022-09-03T09:51:30;6.30;;;3.50;;
72095;SDS011;59968;51.084;16.748;2022-09-03T09:54:17;4.90;;;3.20;;
72095;SDS011;59968;51.084;16.748;2022-09-03T09:56:59;5.40;;;2.80;;
72095;SDS011;59968;51.084;16.748;2022-09-03T09:59:29;6.30;;;3.40;;
72095;SDS011;59968;51.084;16.748;2022-09-03T10:02:14;4.00;;;2.60;;
72095;SDS011;59968;51.084;16.748;2022-09-03T10:05:00;4.90;;;3.00;;
72095;SDS011;59968;51.084;16.748;2022-09-03T10:07:57;5.30;;;2.90;;
72095;SDS011;59968;51.084;16.748;2022-09-03T10:10:27;5.50;;;2.80;;
72095;SDS011;59968;51.084;16.748;2022-09-03T10:13:12;5.10;;;2.50;;
72095;SDS011;59968;51.084;16.748;2022-09-03T10:15:50;4.90;;;2.80;;
72095;SDS011;59968;51.084;16.748;2022-09-03T10:21:10;4.80;;;2.40;;
72095;SDS011;59968;51.084;16.748;2022-09-03T10:26:34;4.00;;;2.50;;
72095;SDS011;59968;51.084;16.748;2022-09-03T10:29:03;5.20;;;2.70;;
72095;SDS011;59968;51.084;16.748;2022-09-03T10:37:22;5.50;;;2.60;;
72095;SDS011;59968;51.084;16.748;2022-09-03T10:45:24;4.40;;;2.40;;
72095;SDS011;59968;51.084;16.748;2022-09-03T10:51:56;4.40;;;3.20;;
72095;SDS011;59968;51.084;16.748;2022-09-03T10:57:17;5.20;;;2.70;;
72095;SDS011;59968;51.084;16.748;2022-09-03T11:00:03;4.10;;;2.30;;
72095;SDS011;59968;51.084;16.748;2022-09-03T11:05:53;4.30;;;2.70;;
72095;SDS011;59968;51.084;16.748;2022-09-03T11:08:41;3.80;;;2.50;;
72095;SDS011;59968;51.084;16.748;2022-09-03T11:12:37;4.90;;;2.60;;
72095;SDS011;59968;51.084;16.748;2022-09-03T11:15:14;4.90;;;2.60;;
72095;SDS011;59968;51.084;16.748;2022-09-03T11:17:56;4.40;;;2.20;;
72095;SDS011;59968;51.084;16.748;2022-09-03T11:20:31;6.50;;;2.90;;
72095;SDS011;59968;51.084;16.748;2022-09-03T11:23:00;4.00;;;2.50;;
72095;SDS011;59968;51.084;16.748;2022-09-03T11:25:31;6.20;;;3.20;;
72095;SDS011;59968;51.084;16.748;2022-09-03T11:31:04;5.50;;;3.30;;
72095;SDS011;59968;51.084;16.748;2022-09-03T11:33:33;4.30;;;3.10;;
72095;SDS011;59968;51.084;16.748;2022-09-03T11:36:07;4.30;;;2.70;;
72095;SDS011;59968;51.084;16.748;2022-09-03T11:38:34;6.00;;;2.90;;
72095;SDS011;59968;51.084;16.748;2022-09-03T11:41:13;4.90;;;2.60;;
72095;SDS011;59968;51.084;16.748;2022-09-03T11:43:52;3.40;;;2.40;;
72095;SDS011;59968;51.084;16.748;2022-09-03T11:48:49;4.10;;;2.90;;
72095;SDS011;59968;51.084;16.748;2022-09-03T11:51:38;4.80;;;2.60;;
72095;SDS011;59968;51.084;16.748;2022-09-03T11:59:38;4.30;;;2.60;;
72095;SDS011;59968;51.084;16.748;2022-09-03T12:05:14;4.60;;;2.40;;
72095;SDS011;59968;51.084;16.748;2022-09-03T12:10:47;4.70;;;2.70;;
72095;SDS011;59968;51.084;16.748;2022-09-03T12:18:32;7.20;;;3.50;;
72095;SDS011;59968;51.084;16.748;2022-09-03T12:21:05;5.40;;;2.70;;
72095;SDS011;59968;51.084;16.748;2022-09-03T12:26:14;5.80;;;2.80;;
72095;SDS011;59968;51.084;16.748;2022-09-03T12:28:54;7.10;;;2.70;;
72095;SDS011;59968;51.084;16.748;2022-09-03T12:31:25;4.00;;;2.20;;
72095;SDS011;59968;51.084;16.748;2022-09-03T12:34:00;4.80;;;2.90;;
72095;SDS011;59968;51.084;16.748;2022-09-03T12:36:37;4.20;;;2.90;;
72095;SDS011;59968;51.084;16.748;2022-09-03T12:39:08;14.80;;;3.30;;
72095;SDS011;59968;51.084;16.748;2022-09-03T12:44:28;4.10;;;2.90;;
72095;SDS011;59968;51.084;16.748;2022-09-03T12:47:09;3.80;;;2.50;;
72095;SDS011;59968;51.084;16.748;2022-09-03T12:50:04;3.80;;;2.40;;
72095;SDS011;59968;51.084;16.748;2022-09-03T13:00:52;6.20;;;3.30;;
72095;SDS011;59968;51.084;16.748;2022-09-03T13:03:23;4.60;;;3.10;;
72095;SDS011;59968;51.084;16.748;2022-09-03T13:09:32;6.60;;;3.10;;
72095;SDS011;59968;51.084;16.748;2022-09-03T13:23:13;5.10;;;3.10;;
72095;SDS011;59968;51.084;16.748;2022-09-03T13:31:49;5.40;;;3.10;;
72095;SDS011;59968;51.084;16.748;2022-09-03T13:34:21;7.20;;;3.50;;
72095;SDS011;59968;51.084;16.748;2022-09-03T13:37:06;7.70;;;3.30;;
72095;SDS011;59968;51.084;16.748;2022-09-03T13:39:45;5.00;;;3.20;;
72095;SDS011;59968;51.084;16.748;2022-09-03T13:44:51;4.90;;;2.80;;
72095;SDS011;59968;51.084;16.748;2022-09-03T13:50:51;3.90;;;2.80;;
72095;SDS011;59968;51.084;16.748;2022-09-03T13:53:47;5.40;;;2.70;;
72095;SDS011;59968;51.084;16.748;2022-09-03T14:03:43;5.40;;;2.50;;
72095;SDS011;59968;51.084;16.748;2022-09-03T14:15:59;6.60;;;3.60;;
72095;SDS011;59968;51.084;16.748;2022-09-03T14:21:40;4.20;;;3.00;;
72095;SDS011;59968;51.084;16.748;2022-09-03T14:27:09;6.50;;;3.50;;
72095;SDS011;59968;51.084;16.748;2022-09-03T14:29:36;5.40;;;3.40;;
72095;SDS011;59968;51.084;16.748;2022-09-03T14:40:11;6.00;;;3.40;;
72095;SDS011;59968;51.084;16.748;2022-09-03T14:45:51;5.90;;;3.10;;
72095;SDS011;59968;51.084;16.748;2022-09-03T14:54:26;5.60;;;3.10;;
72095;SDS011;59968;51.084;16.748;2022-09-03T15:11:17;5.60;;;3.40;;
72095;SDS011;59968;51.084;16.748;2022-09-03T15:17:06;5.60;;;2.90;;
72095;SDS011;59968;51.084;16.748;2022-09-03T15:20:20;6.20;;;3.10;;
72095;SDS011;59968;51.084;16.748;2022-09-03T15:33:57;7.00;;;3.20;;
72095;SDS011;59968;51.084;16.748;2022-09-03T15:36:35;6.00;;;3.90;;
72095;SDS011;59968;51.084;16.748;2022-09-03T15:39:12;5.10;;;3.30;;
72095;SDS011;59968;51.084;16.748;2022-09-03T15:44:53;8.20;;;3.50;;
72095;SDS011;59968;51.084;16.748;2022-09-03T15:47:39;5.60;;;3.10;;
72095;SDS011;59968;51.084;16.748;2022-09-03T15:59:11;7.20;;;3.20;;
72095;SDS011;59968;51.084;16.748;2022-09-03T16:07:26;6.50;;;3.30;;
72095;SDS011;59968;51.084;16.748;2022-09-03T16:10:07;5.70;;;3.70;;
72095;SDS011;59968;51.084;16.748;2022-09-03T16:15:44;7.10;;;3.80;;
72095;SDS011;59968;51.084;16.748;2022-09-03T16:21:25;6.80;;;3.80;;
72095;SDS011;59968;51.084;16.748;2022-09-03T16:26:37;7.30;;;3.50;;
72095;SDS011;59968;51.084;16.748;2022-09-03T16:29:15;6.10;;;3.30;;
72095;SDS011;59968;51.084;16.748;2022-09-03T16:52:13;7.40;;;4.20;;
72095;SDS011;59968;51.084;16.748;2022-09-03T16:55:15;5.20;;;3.20;;
72095;SDS011;59968;51.084;16.748;2022-09-03T16:57:52;5.60;;;3.70;;
72095;SDS011;59968;51.084;16.748;2022-09-03T17:00:27;7.70;;;4.10;;
72095;SDS011;59968;51.084;16.748;2022-09-03T17:03:43;7.10;;;3.80;;
72095;SDS011;59968;51.084;16.748;2022-09-03T17:11:39;11.60;;;6.60;;
72095;SDS011;59968;51.084;16.748;2022-09-03T17:25:57;7.00;;;3.90;;
72095;SDS011;59968;51.084;16.748;2022-09-03T17:28:13;7.60;;;4.50;;
72095;SDS011;59968;51.084;16.748;2022-09-03T17:30:57;6.00;;;4.20;;
72095;SDS011;59968;51.084;16.748;2022-09-03T17:55:32;8.20;;;4.50;;
72095;SDS011;59968;51.084;16.748;2022-09-03T17:58:13;8.80;;;4.60;;
72095;SDS011;59968;51.084;16.748;2022-09-03T18:03:53;7.10;;;4.30;;
72095;SDS011;59968;51.084;16.748;2022-09-03T18:12:08;8.70;;;4.60;;
72095;SDS011;59968;51.084;16.748;2022-09-03T18:14:48;7.20;;;4.40;;
72095;SDS011;59968;51.084;16.748;2022-09-03T18:17:27;9.30;;;5.40;;
72095;SDS011;59968;51.084;16.748;2022-09-03T18:20:04;8.70;;;5.00;;
72095;SDS011;59968;51.084;16.748;2022-09-03T18:22:56;8.50;;;5.50;;
72095;SDS011;59968;51.084;16.748;2022-09-03T18:26:07;9.60;;;6.50;;
72095;SDS011;59968;51.084;16.748;2022-09-03T18:29:28;8.90;;;6.50;;
72095;SDS011;59968;51.084;16.748;2022-09-03T18:32:20;12.30;;;5.80;;
72095;SDS011;59968;51.084;16.748;2022-09-03T18:35:07;9.70;;;6.60;;
72095;SDS011;59968;51.084;16.748;2022-09-03T18:37:54;9.00;;;6.10;;
72095;SDS011;59968;51.084;16.748;2022-09-03T18:40:51;9.70;;;5.70;;
72095;SDS011;59968;51.084;16.748;2022-09-03T18:50:03;7.90;;;4.60;;
72095;SDS011;59968;51.084;16.748;2022-09-03T18:53:12;9.90;;;5.70;;
72095;SDS011;59968;51.084;16.748;2022-09-03T18:56:12;9.40;;;6.20;;
72095;SDS011;59968;51.084;16.748;2022-09-03T19:15:27;14.70;;;8.20;;
72095;SDS011;59968;51.084;16.748;2022-09-03T19:21:37;9.70;;;6.00;;
72095;SDS011;59968;51.084;16.748;2022-09-03T19:24:30;9.10;;;6.00;;
72095;SDS011;59968;51.084;16.748;2022-09-03T19:30:40;10.10;;;6.50;;
72095;SDS011;59968;51.084;16.748;2022-09-03T19:33:58;10.50;;;6.80;;
72095;SDS011;59968;51.084;16.748;2022-09-03T19:37:06;10.90;;;6.40;;
72095;SDS011;59968;51.084;16.748;2022-09-03T19:43:30;13.30;;;6.90;;
72095;SDS011;59968;51.084;16.748;2022-09-03T19:56:00;12.10;;;8.20;;
72095;SDS011;59968;51.084;16.748;2022-09-03T19:58:53;15.10;;;8.00;;
72095;SDS011;59968;51.084;16.748;2022-09-03T20:01:41;17.70;;;12.40;;
72095;SDS011;59968;51.084;16.748;2022-09-03T20:04:42;15.00;;;8.40;;
72095;SDS011;59968;51.084;16.748;2022-09-03T20:07:31;90.20;;;56.20;;
72095;SDS011;59968;51.084;16.748;2022-09-03T20:10:22;68.00;;;46.70;;
72095;SDS011;59968;51.084;16.748;2022-09-03T20:16:04;33.40;;;22.50;;
72095;SDS011;59968;51.084;16.748;2022-09-03T20:18:54;17.10;;;10.90;;
72095;SDS011;59968;51.084;16.748;2022-09-03T20:21:41;16.10;;;10.00;;
72095;SDS011;59968;51.084;16.748;2022-09-03T20:27:17;56.50;;;32.30;;
72095;SDS011;59968;51.084;16.748;2022-09-03T20:30:05;107.50;;;55.00;;
72095;SDS011;59968;51.084;16.748;2022-09-03T20:35:29;157.70;;;83.10;;
72095;SDS011;59968;51.084;16.748;2022-09-03T20:43:56;286.90;;;158.10;;
72095;SDS011;59968;51.084;16.748;2022-09-03T20:46:47;122.20;;;63.90;;
72095;SDS011;59968;51.084;16.748;2022-09-03T20:49:42;90.80;;;49.70;;
72095;SDS011;59968;51.084;16.748;2022-09-03T21:00:31;33.40;;;18.00;;
72095;SDS011;59968;51.084;16.748;2022-09-03T21:03:15;32.20;;;18.40;;
72095;SDS011;59968;51.084;16.748;2022-09-03T21:05:53;41.30;;;23.20;;
72095;SDS011;59968;51.084;16.748;2022-09-03T21:08:47;29.40;;;17.10;;
72095;SDS011;59968;51.084;16.748;2022-09-03T21:11:29;26.30;;;15.50;;
72095;SDS011;59968;51.084;16.748;2022-09-03T21:28:15;12.40;;;7.30;;
72095;SDS011;59968;51.084;16.748;2022-09-03T21:30:50;11.60;;;6.10;;
72095;SDS011;59968;51.084;16.748;2022-09-03T21:33:27;10.50;;;7.20;;
72095;SDS011;59968;51.084;16.748;2022-09-03T21:36:40;21.40;;;12.00;;
72095;SDS011;59968;51.084;16.748;2022-09-03T21:39:09;70.00;;;42.10;;
72095;SDS011;59968;51.084;16.748;2022-09-03T21:47:13;13.00;;;9.00;;
72095;SDS011;59968;51.084;16.748;2022-09-03T21:49:53;15.90;;;11.20;;
72095;SDS011;59968;51.084;16.748;2022-09-03T21:55:21;16.90;;;10.00;;
72095;SDS011;59968;51.084;16.748;2022-09-03T21:57:59;47.40;;;30.70;;
72095;SDS011;59968;51.084;16.748;2022-09-03T22:00:36;31.50;;;20.10;;
72095;SDS011;59968;51.084;16.748;2022-09-03T22:03:05;27.00;;;17.80;;
72095;SDS011;59968;51.084;16.748;2022-09-03T22:05:40;37.50;;;23.20;;
72095;SDS011;59968;51.084;16.748;2022-09-03T22:08:32;37.20;;;22.90;;
72095;SDS011;59968;51.084;16.748;2022-09-03T22:14:15;14.50;;;8.10;;
72095;SDS011;59968;51.084;16.748;2022-09-03T22:17:48;13.90;;;7.60;;
72095;SDS011;59968;51.084;16.748;2022-09-03T22:19:51;13.70;;;8.30;;
72095;SDS011;59968;51.084;16.748;2022-09-03T22:22:23;30.80;;;14.60;;
72095;SDS011;59968;51.084;16.748;2022-09-03T22:30:47;17.10;;;10.00;;
72095;SDS011;59968;51.084;16.748;2022-09-03T22:36:17;14.10;;;9.40;;
72095;SDS011;59968;51.084;16.748;2022-09-03T22:41:42;13.20;;;8.50;;
72095;SDS011;59968;51.084;16.748;2022-09-03T22:55:18;15.00;;;9.10;;
72095;SDS011;59968;51.084;16.748;2022-09-03T22:57:50;11.80;;;8.70;;
72095;SDS011;59968;51.084;16.748;2022-09-03T23:00:18;14.30;;;8.80;;